sensor_id;sensor_type;location;lat;lon;timestamp;P1;durP1;ratioP1;P2;durP2;ratioP2
77415;SDS011;66489;49.230;8.520;2023-11-21T00:01:22;6.95;;;2.30;;
77415;SDS011;66489;49.230;8.520;2023-11-21T00:03:49;8.10;;;2.40;;
77415;SDS011;66489;49.230;8.520;2023-11-21T00:06:16;9.77;;;2.25;;
77415;SDS011;66489;49.230;8.520;2023-11-21T00:08:43;10.13;;;2.40;;
77415;SDS011;66489;49.230;8.520;2023-11-21T00:11:09;6.47;;;1.98;;
77415;SDS011;66489;49.230;8.520;2023-11-21T00:13:36;9.15;;;2.40;;
77415;SDS011;66489;49.230;8.520;2023-11-21T00:16:04;8.43;;;2.53;;
77415;SDS011;66489;49.230;8.520;2023-11-21T00:18:31;7.25;;;2.38;;
77415;SDS011;66489;49.230;8.520;2023-11-21T00:20:57;8.35;;;2.40;;
77415;SDS011;66489;49.230;8.520;2023-11-21T00:23:25;7.88;;;2.30;;
77415;SDS011;66489;49.230;8.520;2023-11-21T00:25:51;6.97;;;2.30;;
77415;SDS011;66489;49.230;8.520;2023-11-21T00:28:18;7.13;;;2.30;;
77415;SDS011;66489;49.230;8.520;2023-11-21T00:30:45;10.35;;;2.60;;
77415;SDS011;66489;49.230;8.520;2023-11-21T00:33:11;7.63;;;2.35;;
77415;SDS011;66489;49.230;8.520;2023-11-21T00:35:38;13.95;;;2.50;;
77415;SDS011;66489;49.230;8.520;2023-11-21T00:38:04;7.57;;;2.55;;
77415;SDS011;66489;49.230;8.520;2023-11-21T00:40:31;6.78;;;2.58;;
77415;SDS011;66489;49.230;8.520;2023-11-21T00:43:00;6.45;;;2.40;;
77415;SDS011;66489;49.230;8.520;2023-11-21T00:45:29;6.65;;;2.25;;
77415;SDS011;66489;49.230;8.520;2023-11-21T00:47:56;5.45;;;1.92;;
77415;SDS011;66489;49.230;8.520;2023-11-21T00:52:52;6.40;;;2.00;;
77415;SDS011;66489;49.230;8.520;2023-11-21T00:55:19;7.80;;;2.55;;
77415;SDS011;66489;49.230;8.520;2023-11-21T00:57:45;5.70;;;1.95;;
77415;SDS011;66489;49.230;8.520;2023-11-21T01:00:12;8.07;;;2.10;;
77415;SDS011;66489;49.230;8.520;2023-11-21T01:02:44;9.18;;;2.42;;
77415;SDS011;66489;49.230;8.520;2023-11-21T01:05:11;6.07;;;2.15;;
77415;SDS011;66489;49.230;8.520;2023-11-21T01:07:37;10.77;;;2.20;;
77415;SDS011;66489;49.230;8.520;2023-11-21T01:10:04;7.20;;;2.20;;
77415;SDS011;66489;49.230;8.520;2023-11-21T01:12:37;5.65;;;2.20;;
77415;SDS011;66489;49.230;8.520;2023-11-21T01:15:04;7.32;;;2.40;;
77415;SDS011;66489;49.230;8.520;2023-11-21T01:20:00;7.10;;;1.98;;
77415;SDS011;66489;49.230;8.520;2023-11-21T01:22:28;6.55;;;1.83;;
77415;SDS011;66489;49.230;8.520;2023-11-21T01:24:55;6.28;;;2.15;;
77415;SDS011;66489;49.230;8.520;2023-11-21T01:27:22;5.90;;;2.00;;
77415;SDS011;66489;49.230;8.520;2023-11-21T01:29:48;8.38;;;1.95;;
77415;SDS011;66489;49.230;8.520;2023-11-21T01:32:15;7.18;;;2.20;;
77415;SDS011;66489;49.230;8.520;2023-11-21T01:34:42;8.00;;;2.15;;
77415;SDS011;66489;49.230;8.520;2023-11-21T01:37:08;8.65;;;2.38;;
77415;SDS011;66489;49.230;8.520;2023-11-21T01:39:38;6.53;;;2.00;;
77415;SDS011;66489;49.230;8.520;2023-11-21T01:42:05;9.15;;;1.98;;
77415;SDS011;66489;49.230;8.520;2023-11-21T01:44:32;7.57;;;1.90;;
77415;SDS011;66489;49.230;8.520;2023-11-21T01:46:59;5.85;;;1.70;;
77415;SDS011;66489;49.230;8.520;2023-11-21T01:49:34;7.63;;;2.47;;
77415;SDS011;66489;49.230;8.520;2023-11-21T01:52:00;5.05;;;1.70;;
77415;SDS011;66489;49.230;8.520;2023-11-21T01:54:28;5.00;;;1.80;;
77415;SDS011;66489;49.230;8.520;2023-11-21T01:56:58;6.82;;;1.80;;
77415;SDS011;66489;49.230;8.520;2023-11-21T01:59:35;7.78;;;2.05;;
77415;SDS011;66489;49.230;8.520;2023-11-21T02:02:06;6.32;;;1.50;;
77415;SDS011;66489;49.230;8.520;2023-11-21T02:04:36;4.72;;;1.70;;
77415;SDS011;66489;49.230;8.520;2023-11-21T02:07:03;8.70;;;1.85;;
77415;SDS011;66489;49.230;8.520;2023-11-21T02:09:32;5.30;;;1.90;;
77415;SDS011;66489;49.230;8.520;2023-11-21T02:12:00;4.10;;;1.80;;
77415;SDS011;66489;49.230;8.520;2023-11-21T02:14:27;6.57;;;1.65;;
77415;SDS011;66489;49.230;8.520;2023-11-21T02:16:54;4.72;;;1.73;;
77415;SDS011;66489;49.230;8.520;2023-11-21T02:19:23;6.80;;;1.58;;
77415;SDS011;66489;49.230;8.520;2023-11-21T02:21:52;7.45;;;2.05;;
77415;SDS011;66489;49.230;8.520;2023-11-21T02:24:22;7.85;;;1.88;;
77415;SDS011;66489;49.230;8.520;2023-11-21T02:29:18;6.20;;;1.70;;
77415;SDS011;66489;49.230;8.520;2023-11-21T02:31:49;4.20;;;1.88;;
77415;SDS011;66489;49.230;8.520;2023-11-21T02:34:17;5.10;;;2.00;;
77415;SDS011;66489;49.230;8.520;2023-11-21T02:36:44;3.85;;;1.30;;
77415;SDS011;66489;49.230;8.520;2023-11-21T02:39:11;5.90;;;2.05;;
77415;SDS011;66489;49.230;8.520;2023-11-21T02:41:38;4.18;;;1.40;;
77415;SDS011;66489;49.230;8.520;2023-11-21T02:44:05;3.22;;;1.50;;
77415;SDS011;66489;49.230;8.520;2023-11-21T02:46:33;5.40;;;1.80;;
77415;SDS011;66489;49.230;8.520;2023-11-21T02:49:03;4.10;;;1.50;;
77415;SDS011;66489;49.230;8.520;2023-11-21T02:51:30;3.33;;;1.55;;
77415;SDS011;66489;49.230;8.520;2023-11-21T02:53:56;4.03;;;1.45;;
77415;SDS011;66489;49.230;8.520;2023-11-21T02:56:25;6.05;;;1.70;;
77415;SDS011;66489;49.230;8.520;2023-11-21T02:58:57;6.72;;;1.80;;
77415;SDS011;66489;49.230;8.520;2023-11-21T03:01:23;4.82;;;1.40;;
77415;SDS011;66489;49.230;8.520;2023-11-21T03:03:50;5.45;;;1.65;;
77415;SDS011;66489;49.230;8.520;2023-11-21T03:06:18;6.20;;;1.70;;
77415;SDS011;66489;49.230;8.520;2023-11-21T03:08:45;6.82;;;1.70;;
77415;SDS011;66489;49.230;8.520;2023-11-21T03:11:12;6.53;;;1.83;;
77415;SDS011;66489;49.230;8.520;2023-11-21T03:13:39;6.72;;;1.70;;
77415;SDS011;66489;49.230;8.520;2023-11-21T03:16:10;6.57;;;1.80;;
77415;SDS011;66489;49.230;8.520;2023-11-21T03:18:39;4.70;;;1.70;;
77415;SDS011;66489;49.230;8.520;2023-11-21T03:21:06;6.57;;;2.03;;
77415;SDS011;66489;49.230;8.520;2023-11-21T03:23:35;5.57;;;1.90;;
77415;SDS011;66489;49.230;8.520;2023-11-21T03:26:03;6.60;;;2.00;;
77415;SDS011;66489;49.230;8.520;2023-11-21T03:28:32;8.93;;;2.03;;
77415;SDS011;66489;49.230;8.520;2023-11-21T03:30:59;5.25;;;1.77;;
77415;SDS011;66489;49.230;8.520;2023-11-21T03:33:28;6.25;;;1.75;;
77415;SDS011;66489;49.230;8.520;2023-11-21T03:38:22;8.98;;;2.05;;
77415;SDS011;66489;49.230;8.520;2023-11-21T03:40:49;4.38;;;1.90;;
77415;SDS011;66489;49.230;8.520;2023-11-21T03:43:16;5.90;;;2.10;;
77415;SDS011;66489;49.230;8.520;2023-11-21T03:45:44;6.53;;;2.00;;
77415;SDS011;66489;49.230;8.520;2023-11-21T03:48:11;5.00;;;1.88;;
77415;SDS011;66489;49.230;8.520;2023-11-21T03:50:38;5.28;;;2.03;;
77415;SDS011;66489;49.230;8.520;2023-11-21T03:53:05;7.38;;;2.78;;
77415;SDS011;66489;49.230;8.520;2023-11-21T03:55:32;5.00;;;2.10;;
77415;SDS011;66489;49.230;8.520;2023-11-21T03:57:59;6.45;;;2.20;;
77415;SDS011;66489;49.230;8.520;2023-11-21T04:00:25;5.93;;;2.17;;
77415;SDS011;66489;49.230;8.520;2023-11-21T04:02:55;6.22;;;2.42;;
77415;SDS011;66489;49.230;8.520;2023-11-21T04:05:21;6.13;;;2.10;;
77415;SDS011;66489;49.230;8.520;2023-11-21T04:07:50;7.80;;;3.03;;
77415;SDS011;66489;49.230;8.520;2023-11-21T04:10:19;5.65;;;1.85;;
77415;SDS011;66489;49.230;8.520;2023-11-21T04:12:46;7.45;;;2.88;;
77415;SDS011;66489;49.230;8.520;2023-11-21T04:15:13;8.80;;;2.25;;
77415;SDS011;66489;49.230;8.520;2023-11-21T04:17:40;7.72;;;2.35;;
77415;SDS011;66489;49.230;8.520;2023-11-21T04:20:08;6.20;;;2.00;;
77415;SDS011;66489;49.230;8.520;2023-11-21T04:22:36;5.97;;;2.35;;
77415;SDS011;66489;49.230;8.520;2023-11-21T04:25:08;6.80;;;2.08;;
77415;SDS011;66489;49.230;8.520;2023-11-21T04:27:37;7.32;;;2.10;;
77415;SDS011;66489;49.230;8.520;2023-11-21T04:30:05;4.82;;;2.22;;
77415;SDS011;66489;49.230;8.520;2023-11-21T04:32:32;5.85;;;2.10;;
77415;SDS011;66489;49.230;8.520;2023-11-21T04:34:59;7.47;;;2.33;;
77415;SDS011;66489;49.230;8.520;2023-11-21T04:37:26;5.80;;;2.10;;
77415;SDS011;66489;49.230;8.520;2023-11-21T04:39:52;8.00;;;2.70;;
77415;SDS011;66489;49.230;8.520;2023-11-21T04:42:19;6.78;;;2.63;;
77415;SDS011;66489;49.230;8.520;2023-11-21T04:44:49;6.75;;;2.15;;
77415;SDS011;66489;49.230;8.520;2023-11-21T04:47:15;6.15;;;2.33;;
77415;SDS011;66489;49.230;8.520;2023-11-21T04:49:45;5.82;;;2.47;;
77415;SDS011;66489;49.230;8.520;2023-11-21T04:52:13;5.28;;;2.20;;
77415;SDS011;66489;49.230;8.520;2023-11-21T04:54:39;6.57;;;2.42;;
77415;SDS011;66489;49.230;8.520;2023-11-21T04:57:06;5.68;;;2.65;;
77415;SDS011;66489;49.230;8.520;2023-11-21T04:59:35;8.60;;;2.80;;
77415;SDS011;66489;49.230;8.520;2023-11-21T05:02:02;8.27;;;2.78;;
77415;SDS011;66489;49.230;8.520;2023-11-21T05:04:29;7.35;;;2.55;;
77415;SDS011;66489;49.230;8.520;2023-11-21T05:06:56;6.70;;;2.90;;
77415;SDS011;66489;49.230;8.520;2023-11-21T05:09:22;5.63;;;2.47;;
77415;SDS011;66489;49.230;8.520;2023-11-21T05:11:49;7.70;;;2.95;;
77415;SDS011;66489;49.230;8.520;2023-11-21T05:14:16;7.13;;;2.40;;
77415;SDS011;66489;49.230;8.520;2023-11-21T05:16:45;7.40;;;2.78;;
77415;SDS011;66489;49.230;8.520;2023-11-21T05:19:12;7.43;;;2.67;;
77415;SDS011;66489;49.230;8.520;2023-11-21T05:21:39;7.35;;;3.00;;
77415;SDS011;66489;49.230;8.520;2023-11-21T05:24:06;6.38;;;2.97;;
77415;SDS011;66489;49.230;8.520;2023-11-21T05:26:32;6.10;;;2.90;;
77415;SDS011;66489;49.230;8.520;2023-11-21T05:28:59;5.93;;;2.88;;
77415;SDS011;66489;49.230;8.520;2023-11-21T05:31:25;6.82;;;3.17;;
77415;SDS011;66489;49.230;8.520;2023-11-21T05:33:53;8.43;;;3.20;;
77415;SDS011;66489;49.230;8.520;2023-11-21T05:36:19;6.45;;;3.03;;
77415;SDS011;66489;49.230;8.520;2023-11-21T05:38:46;6.35;;;2.83;;
77415;SDS011;66489;49.230;8.520;2023-11-21T05:41:12;6.20;;;2.97;;
77415;SDS011;66489;49.230;8.520;2023-11-21T05:43:43;8.98;;;3.00;;
77415;SDS011;66489;49.230;8.520;2023-11-21T05:46:10;9.80;;;4.03;;
77415;SDS011;66489;49.230;8.520;2023-11-21T05:48:36;8.35;;;4.32;;
77415;SDS011;66489;49.230;8.520;2023-11-21T05:51:04;9.40;;;4.35;;
77415;SDS011;66489;49.230;8.520;2023-11-21T05:53:32;8.90;;;4.00;;
77415;SDS011;66489;49.230;8.520;2023-11-21T05:55:58;5.93;;;3.53;;
77415;SDS011;66489;49.230;8.520;2023-11-21T05:58:25;8.77;;;3.63;;
77415;SDS011;66489;49.230;8.520;2023-11-21T06:00:52;7.97;;;3.20;;
77415;SDS011;66489;49.230;8.520;2023-11-21T06:03:19;4.72;;;2.97;;
77415;SDS011;66489;49.230;8.520;2023-11-21T06:05:45;11.00;;;3.33;;
77415;SDS011;66489;49.230;8.520;2023-11-21T06:10:43;6.20;;;3.15;;
77415;SDS011;66489;49.230;8.520;2023-11-21T06:13:10;11.25;;;4.28;;
77415;SDS011;66489;49.230;8.520;2023-11-21T06:15:36;16.05;;;6.75;;
77415;SDS011;66489;49.230;8.520;2023-11-21T06:18:03;9.35;;;3.95;;
77415;SDS011;66489;49.230;8.520;2023-11-21T06:20:30;9.10;;;3.78;;
77415;SDS011;66489;49.230;8.520;2023-11-21T06:22:56;8.88;;;4.40;;
77415;SDS011;66489;49.230;8.520;2023-11-21T06:25:23;7.22;;;3.70;;
77415;SDS011;66489;49.230;8.520;2023-11-21T06:27:50;8.05;;;4.00;;
77415;SDS011;66489;49.230;8.520;2023-11-21T06:30:18;5.65;;;3.58;;
77415;SDS011;66489;49.230;8.520;2023-11-21T06:32:46;10.30;;;6.05;;
77415;SDS011;66489;49.230;8.520;2023-11-21T06:35:14;11.13;;;6.00;;
77415;SDS011;66489;49.230;8.520;2023-11-21T06:37:42;8.68;;;5.60;;
77415;SDS011;66489;49.230;8.520;2023-11-21T06:40:15;7.82;;;4.15;;
77415;SDS011;66489;49.230;8.520;2023-11-21T06:42:41;12.23;;;6.43;;
77415;SDS011;66489;49.230;8.520;2023-11-21T06:45:10;11.02;;;4.78;;
77415;SDS011;66489;49.230;8.520;2023-11-21T06:47:38;8.85;;;4.25;;
77415;SDS011;66489;49.230;8.520;2023-11-21T06:50:05;8.07;;;3.80;;
77415;SDS011;66489;49.230;8.520;2023-11-21T06:52:33;7.10;;;3.72;;
77415;SDS011;66489;49.230;8.520;2023-11-21T06:55:00;7.93;;;4.22;;
77415;SDS011;66489;49.230;8.520;2023-11-21T06:57:27;8.75;;;4.63;;
77415;SDS011;66489;49.230;8.520;2023-11-21T06:59:54;7.10;;;4.35;;
77415;SDS011;66489;49.230;8.520;2023-11-21T07:02:23;7.93;;;5.20;;
77415;SDS011;66489;49.230;8.520;2023-11-21T07:04:50;19.55;;;7.57;;
77415;SDS011;66489;49.230;8.520;2023-11-21T07:07:17;28.90;;;10.20;;
77415;SDS011;66489;49.230;8.520;2023-11-21T07:09:45;17.25;;;8.00;;
77415;SDS011;66489;49.230;8.520;2023-11-21T07:12:11;12.70;;;7.15;;
77415;SDS011;66489;49.230;8.520;2023-11-21T07:14:38;15.85;;;7.70;;
77415;SDS011;66489;49.230;8.520;2023-11-21T07:17:06;14.65;;;7.45;;
77415;SDS011;66489;49.230;8.520;2023-11-21T07:19:33;11.93;;;7.63;;
77415;SDS011;66489;49.230;8.520;2023-11-21T07:22:00;11.43;;;6.88;;
77415;SDS011;66489;49.230;8.520;2023-11-21T07:24:27;11.20;;;7.07;;
77415;SDS011;66489;49.230;8.520;2023-11-21T07:26:53;13.95;;;8.02;;
77415;SDS011;66489;49.230;8.520;2023-11-21T07:29:23;17.58;;;8.95;;
77415;SDS011;66489;49.230;8.520;2023-11-21T07:31:52;12.25;;;7.18;;
77415;SDS011;66489;49.230;8.520;2023-11-21T07:34:22;13.90;;;7.45;;
77415;SDS011;66489;49.230;8.520;2023-11-21T07:36:49;14.20;;;8.20;;
77415;SDS011;66489;49.230;8.520;2023-11-21T07:39:16;11.32;;;5.78;;
77415;SDS011;66489;49.230;8.520;2023-11-21T07:41:43;11.95;;;6.90;;
77415;SDS011;66489;49.230;8.520;2023-11-21T07:44:18;10.20;;;5.68;;
77415;SDS011;66489;49.230;8.520;2023-11-21T07:46:46;10.60;;;6.25;;
77415;SDS011;66489;49.230;8.520;2023-11-21T07:49:14;10.57;;;6.20;;
77415;SDS011;66489;49.230;8.520;2023-11-21T07:51:47;11.70;;;6.47;;
77415;SDS011;66489;49.230;8.520;2023-11-21T07:54:13;13.57;;;8.15;;
77415;SDS011;66489;49.230;8.520;2023-11-21T07:56:40;14.32;;;7.53;;
77415;SDS011;66489;49.230;8.520;2023-11-21T07:59:07;14.63;;;7.57;;
77415;SDS011;66489;49.230;8.520;2023-11-21T08:01:33;14.02;;;8.25;;
77415;SDS011;66489;49.230;8.520;2023-11-21T08:04:00;17.05;;;8.98;;
77415;SDS011;66489;49.230;8.520;2023-11-21T08:06:30;15.45;;;9.75;;
77415;SDS011;66489;49.230;8.520;2023-11-21T08:08:57;18.67;;;10.23;;
77415;SDS011;66489;49.230;8.520;2023-11-21T08:11:24;17.60;;;10.30;;
77415;SDS011;66489;49.230;8.520;2023-11-21T08:13:50;19.48;;;11.35;;
77415;SDS011;66489;49.230;8.520;2023-11-21T08:16:17;17.02;;;9.98;;
77415;SDS011;66489;49.230;8.520;2023-11-21T08:18:43;17.00;;;9.95;;
77415;SDS011;66489;49.230;8.520;2023-11-21T08:21:12;16.08;;;9.57;;
77415;SDS011;66489;49.230;8.520;2023-11-21T08:23:39;18.02;;;11.82;;
77415;SDS011;66489;49.230;8.520;2023-11-21T08:26:05;16.80;;;10.77;;
77415;SDS011;66489;49.230;8.520;2023-11-21T08:28:32;20.27;;;11.70;;
77415;SDS011;66489;49.230;8.520;2023-11-21T08:31:00;17.83;;;12.05;;
77415;SDS011;66489;49.230;8.520;2023-11-21T08:33:27;17.95;;;10.98;;
77415;SDS011;66489;49.230;8.520;2023-11-21T08:35:54;18.10;;;11.15;;
77415;SDS011;66489;49.230;8.520;2023-11-21T08:38:21;19.05;;;11.07;;
77415;SDS011;66489;49.230;8.520;2023-11-21T08:40:48;18.90;;;11.27;;
77415;SDS011;66489;49.230;8.520;2023-11-21T08:43:15;17.75;;;11.70;;
77415;SDS011;66489;49.230;8.520;2023-11-21T08:45:42;18.70;;;10.80;;
77415;SDS011;66489;49.230;8.520;2023-11-21T08:48:09;20.45;;;11.80;;
77415;SDS011;66489;49.230;8.520;2023-11-21T08:50:38;18.83;;;11.17;;
77415;SDS011;66489;49.230;8.520;2023-11-21T08:53:04;18.92;;;11.88;;
77415;SDS011;66489;49.230;8.520;2023-11-21T08:55:32;19.30;;;11.90;;
77415;SDS011;66489;49.230;8.520;2023-11-21T08:58:03;20.70;;;12.38;;
77415;SDS011;66489;49.230;8.520;2023-11-21T09:00:32;19.75;;;11.35;;
77415;SDS011;66489;49.230;8.520;2023-11-21T09:03:00;19.35;;;11.50;;
77415;SDS011;66489;49.230;8.520;2023-11-21T09:05:28;17.10;;;10.90;;
77415;SDS011;66489;49.230;8.520;2023-11-21T09:07:54;18.42;;;11.15;;
77415;SDS011;66489;49.230;8.520;2023-11-21T09:10:21;18.90;;;11.55;;
77415;SDS011;66489;49.230;8.520;2023-11-21T09:12:49;19.33;;;11.90;;
77415;SDS011;66489;49.230;8.520;2023-11-21T09:15:16;22.80;;;12.45;;
77415;SDS011;66489;49.230;8.520;2023-11-21T09:17:42;17.30;;;10.38;;
77415;SDS011;66489;49.230;8.520;2023-11-21T09:20:11;17.80;;;10.03;;
77415;SDS011;66489;49.230;8.520;2023-11-21T09:22:38;15.50;;;10.05;;
77415;SDS011;66489;49.230;8.520;2023-11-21T09:25:07;17.35;;;11.13;;
77415;SDS011;66489;49.230;8.520;2023-11-21T09:27:37;18.23;;;12.18;;
77415;SDS011;66489;49.230;8.520;2023-11-21T09:30:04;18.98;;;10.80;;
77415;SDS011;66489;49.230;8.520;2023-11-21T09:32:31;15.73;;;9.90;;
77415;SDS011;66489;49.230;8.520;2023-11-21T09:35:01;23.80;;;14.65;;
77415;SDS011;66489;49.230;8.520;2023-11-21T09:37:29;16.30;;;11.00;;
77415;SDS011;66489;49.230;8.520;2023-11-21T09:39:56;15.40;;;10.27;;
77415;SDS011;66489;49.230;8.520;2023-11-21T09:42:25;15.32;;;10.60;;
77415;SDS011;66489;49.230;8.520;2023-11-21T09:45:00;25.20;;;16.10;;
77415;SDS011;66489;49.230;8.520;2023-11-21T09:47:31;19.20;;;12.82;;
77415;SDS011;66489;49.230;8.520;2023-11-21T09:49:59;21.83;;;14.48;;
77415;SDS011;66489;49.230;8.520;2023-11-21T09:52:28;22.58;;;14.18;;
77415;SDS011;66489;49.230;8.520;2023-11-21T09:54:55;17.75;;;11.50;;
77415;SDS011;66489;49.230;8.520;2023-11-21T09:57:25;18.77;;;12.00;;
77415;SDS011;66489;49.230;8.520;2023-11-21T09:59:52;14.98;;;9.80;;
77415;SDS011;66489;49.230;8.520;2023-11-21T10:02:28;14.27;;;9.82;;
77415;SDS011;66489;49.230;8.520;2023-11-21T10:04:58;20.83;;;14.13;;
77415;SDS011;66489;49.230;8.520;2023-11-21T10:07:27;13.35;;;8.88;;
77415;SDS011;66489;49.230;8.520;2023-11-21T10:09:55;14.73;;;8.27;;
77415;SDS011;66489;49.230;8.520;2023-11-21T10:12:23;11.35;;;8.32;;
77415;SDS011;66489;49.230;8.520;2023-11-21T10:14:50;10.90;;;7.80;;
77415;SDS011;66489;49.230;8.520;2023-11-21T10:19:47;8.90;;;6.47;;
77415;SDS011;66489;49.230;8.520;2023-11-21T10:22:16;8.82;;;6.20;;
77415;SDS011;66489;49.230;8.520;2023-11-21T10:24:43;7.90;;;5.85;;
77415;SDS011;66489;49.230;8.520;2023-11-21T10:27:19;8.75;;;4.93;;
77415;SDS011;66489;49.230;8.520;2023-11-21T10:29:46;7.90;;;4.28;;
77415;SDS011;66489;49.230;8.520;2023-11-21T10:32:12;6.90;;;3.75;;
77415;SDS011;66489;49.230;8.520;2023-11-21T10:34:39;6.43;;;3.53;;
77415;SDS011;66489;49.230;8.520;2023-11-21T10:37:11;5.20;;;3.10;;
77415;SDS011;66489;49.230;8.520;2023-11-21T10:39:38;4.07;;;2.70;;
77415;SDS011;66489;49.230;8.520;2023-11-21T10:42:07;4.10;;;2.63;;
77415;SDS011;66489;49.230;8.520;2023-11-21T10:44:34;6.18;;;2.80;;
77415;SDS011;66489;49.230;8.520;2023-11-21T10:47:01;4.13;;;2.65;;
77415;SDS011;66489;49.230;8.520;2023-11-21T10:49:29;5.65;;;2.75;;
77415;SDS011;66489;49.230;8.520;2023-11-21T10:51:59;4.95;;;2.67;;
77415;SDS011;66489;49.230;8.520;2023-11-21T10:54:26;5.50;;;2.90;;
77415;SDS011;66489;49.230;8.520;2023-11-21T10:56:56;6.70;;;4.15;;
77415;SDS011;66489;49.230;8.520;2023-11-21T10:59:28;4.80;;;3.15;;
77415;SDS011;66489;49.230;8.520;2023-11-21T11:01:56;5.80;;;3.40;;
77415;SDS011;66489;49.230;8.520;2023-11-21T11:04:24;5.18;;;3.20;;
77415;SDS011;66489;49.230;8.520;2023-11-21T11:06:57;7.97;;;4.10;;
77415;SDS011;66489;49.230;8.520;2023-11-21T11:09:24;6.45;;;3.50;;
77415;SDS011;66489;49.230;8.520;2023-11-21T11:11:51;6.10;;;3.70;;
77415;SDS011;66489;49.230;8.520;2023-11-21T11:14:19;5.68;;;3.72;;
77415;SDS011;66489;49.230;8.520;2023-11-21T11:16:46;7.15;;;4.65;;
77415;SDS011;66489;49.230;8.520;2023-11-21T11:19:13;6.13;;;3.78;;
77415;SDS011;66489;49.230;8.520;2023-11-21T11:24:33;5.93;;;3.90;;
77415;SDS011;66489;49.230;8.520;2023-11-21T11:29:47;7.72;;;5.03;;
77415;SDS011;66489;49.230;8.520;2023-11-21T11:35:23;10.10;;;6.40;;
77415;SDS011;66489;49.230;8.520;2023-11-21T11:37:50;12.23;;;7.60;;
77415;SDS011;66489;49.230;8.520;2023-11-21T11:40:17;13.60;;;7.88;;
77415;SDS011;66489;49.230;8.520;2023-11-21T11:42:57;14.80;;;8.45;;
77415;SDS011;66489;49.230;8.520;2023-11-21T11:45:26;13.80;;;8.38;;
77415;SDS011;66489;49.230;8.520;2023-11-21T11:48:00;14.20;;;8.43;;
77415;SDS011;66489;49.230;8.520;2023-11-21T11:50:27;16.60;;;10.00;;
77415;SDS011;66489;49.230;8.520;2023-11-21T11:52:54;17.33;;;9.95;;
77415;SDS011;66489;49.230;8.520;2023-11-21T11:55:38;15.32;;;9.23;;
77415;SDS011;66489;49.230;8.520;2023-11-21T11:58:05;15.40;;;9.68;;
77415;SDS011;66489;49.230;8.520;2023-11-21T12:00:33;14.27;;;8.93;;
77415;SDS011;66489;49.230;8.520;2023-11-21T12:03:04;14.95;;;8.55;;
77415;SDS011;66489;49.230;8.520;2023-11-21T12:05:34;14.65;;;8.30;;
77415;SDS011;66489;49.230;8.520;2023-11-21T12:08:02;13.82;;;7.70;;
77415;SDS011;66489;49.230;8.520;2023-11-21T12:10:31;11.40;;;7.25;;
77415;SDS011;66489;49.230;8.520;2023-11-21T12:13:09;13.77;;;8.40;;
77415;SDS011;66489;49.230;8.520;2023-11-21T12:15:39;10.43;;;5.78;;
77415;SDS011;66489;49.230;8.520;2023-11-21T12:18:08;9.35;;;5.57;;
77415;SDS011;66489;49.230;8.520;2023-11-21T12:20:35;9.48;;;5.85;;
77415;SDS011;66489;49.230;8.520;2023-11-21T12:23:08;7.78;;;5.10;;
77415;SDS011;66489;49.230;8.520;2023-11-21T12:25:36;7.68;;;4.88;;
77415;SDS011;66489;49.230;8.520;2023-11-21T12:28:03;6.40;;;4.38;;
77415;SDS011;66489;49.230;8.520;2023-11-21T12:30:30;8.38;;;4.90;;
77415;SDS011;66489;49.230;8.520;2023-11-21T12:33:08;8.23;;;4.35;;
77415;SDS011;66489;49.230;8.520;2023-11-21T12:35:38;8.35;;;4.22;;
77415;SDS011;66489;49.230;8.520;2023-11-21T12:38:08;7.07;;;4.20;;
77415;SDS011;66489;49.230;8.520;2023-11-21T12:40:37;6.78;;;4.20;;
77415;SDS011;66489;49.230;8.520;2023-11-21T12:43:06;8.02;;;4.07;;
77415;SDS011;66489;49.230;8.520;2023-11-21T12:45:34;6.28;;;3.80;;
77415;SDS011;66489;49.230;8.520;2023-11-21T12:48:04;5.78;;;3.90;;
77415;SDS011;66489;49.230;8.520;2023-11-21T12:50:37;5.97;;;3.78;;
77415;SDS011;66489;49.230;8.520;2023-11-21T12:53:08;6.28;;;4.00;;
77415;SDS011;66489;49.230;8.520;2023-11-21T12:55:39;6.72;;;3.97;;
77415;SDS011;66489;49.230;8.520;2023-11-21T12:58:09;6.85;;;4.20;;
77415;SDS011;66489;49.230;8.520;2023-11-21T13:03:14;6.88;;;4.50;;
77415;SDS011;66489;49.230;8.520;2023-11-21T13:05:49;6.93;;;4.82;;
77415;SDS011;66489;49.230;8.520;2023-11-21T13:08:25;6.90;;;3.88;;
77415;SDS011;66489;49.230;8.520;2023-11-21T13:10:52;6.75;;;4.50;;
77415;SDS011;66489;49.230;8.520;2023-11-21T13:13:23;9.15;;;4.78;;
77415;SDS011;66489;49.230;8.520;2023-11-21T13:15:52;7.72;;;4.38;;
77415;SDS011;66489;49.230;8.520;2023-11-21T13:18:37;7.68;;;4.43;;
77415;SDS011;66489;49.230;8.520;2023-11-21T13:21:08;6.68;;;4.13;;
77415;SDS011;66489;49.230;8.520;2023-11-21T13:23:42;9.18;;;5.18;;
77415;SDS011;66489;49.230;8.520;2023-11-21T13:26:13;7.90;;;4.90;;
77415;SDS011;66489;49.230;8.520;2023-11-21T13:28:41;7.40;;;5.18;;
77415;SDS011;66489;49.230;8.520;2023-11-21T13:31:15;9.70;;;4.93;;
77415;SDS011;66489;49.230;8.520;2023-11-21T13:33:52;7.75;;;4.25;;
77415;SDS011;66489;49.230;8.520;2023-11-21T13:36:23;8.45;;;4.93;;
77415;SDS011;66489;49.230;8.520;2023-11-21T13:38:51;7.05;;;4.65;;
77415;SDS011;66489;49.230;8.520;2023-11-21T13:41:21;7.63;;;4.53;;
77415;SDS011;66489;49.230;8.520;2023-11-21T13:43:54;7.45;;;4.47;;
77415;SDS011;66489;49.230;8.520;2023-11-21T13:46:30;7.15;;;4.75;;
77415;SDS011;66489;49.230;8.520;2023-11-21T13:49:03;7.97;;;5.50;;
77415;SDS011;66489;49.230;8.520;2023-11-21T13:51:35;9.18;;;4.25;;
77415;SDS011;66489;49.230;8.520;2023-11-21T13:54:08;6.55;;;4.88;;
77415;SDS011;66489;49.230;8.520;2023-11-21T13:56:37;6.88;;;4.50;;
77415;SDS011;66489;49.230;8.520;2023-11-21T13:59:05;7.32;;;4.35;;
77415;SDS011;66489;49.230;8.520;2023-11-21T14:01:53;8.30;;;4.00;;
77415;SDS011;66489;49.230;8.520;2023-11-21T14:04:29;12.18;;;4.57;;
77415;SDS011;66489;49.230;8.520;2023-11-21T14:06:59;8.40;;;4.03;;
77415;SDS011;66489;49.230;8.520;2023-11-21T14:09:37;7.70;;;4.22;;
77415;SDS011;66489;49.230;8.520;2023-11-21T14:12:10;8.88;;;4.68;;
77415;SDS011;66489;49.230;8.520;2023-11-21T14:14:39;7.20;;;4.53;;
77415;SDS011;66489;49.230;8.520;2023-11-21T14:17:06;6.30;;;4.38;;
77415;SDS011;66489;49.230;8.520;2023-11-21T14:19:33;8.20;;;4.93;;
77415;SDS011;66489;49.230;8.520;2023-11-21T14:24:29;9.98;;;5.45;;
77415;SDS011;66489;49.230;8.520;2023-11-21T14:26:57;22.98;;;9.77;;
77415;SDS011;66489;49.230;8.520;2023-11-21T14:29:23;9.93;;;5.90;;
77415;SDS011;66489;49.230;8.520;2023-11-21T14:31:51;10.02;;;5.75;;
77415;SDS011;66489;49.230;8.520;2023-11-21T14:34:20;11.77;;;6.80;;
77415;SDS011;66489;49.230;8.520;2023-11-21T14:36:49;8.30;;;5.13;;
77415;SDS011;66489;49.230;8.520;2023-11-21T14:39:16;15.55;;;6.28;;
77415;SDS011;66489;49.230;8.520;2023-11-21T14:41:50;8.70;;;4.70;;
77415;SDS011;66489;49.230;8.520;2023-11-21T14:44:29;7.70;;;4.93;;
77415;SDS011;66489;49.230;8.520;2023-11-21T14:46:59;7.30;;;4.43;;
77415;SDS011;66489;49.230;8.520;2023-11-21T14:49:27;12.93;;;5.93;;
77415;SDS011;66489;49.230;8.520;2023-11-21T14:52:02;11.05;;;5.50;;
77415;SDS011;66489;49.230;8.520;2023-11-21T14:54:31;11.40;;;5.25;;
77415;SDS011;66489;49.230;8.520;2023-11-21T14:57:11;9.75;;;5.05;;
77415;SDS011;66489;49.230;8.520;2023-11-21T14:59:45;7.43;;;4.53;;
77415;SDS011;66489;49.230;8.520;2023-11-21T15:02:15;9.55;;;4.57;;
77415;SDS011;66489;49.230;8.520;2023-11-21T15:04:42;11.48;;;5.03;;
77415;SDS011;66489;49.230;8.520;2023-11-21T15:07:09;9.23;;;5.32;;
77415;SDS011;66489;49.230;8.520;2023-11-21T15:09:39;9.13;;;6.68;;
77415;SDS011;66489;49.230;8.520;2023-11-21T15:12:09;9.88;;;6.15;;
77415;SDS011;66489;49.230;8.520;2023-11-21T15:14:46;17.80;;;11.43;;
77415;SDS011;66489;49.230;8.520;2023-11-21T15:17:18;13.10;;;7.50;;